createdAt,value
2022-07-30T00:00:48.706Z,3.55
2022-07-30T00:03:15.706Z,3.15
2022-07-30T00:05:54.909Z,3.40
2022-07-30T00:08:22.749Z,2.97
2022-07-30T00:10:50.219Z,3.60
2022-07-30T00:13:17.438Z,3.90
2022-07-30T00:15:43.964Z,5.25
2022-07-30T00:18:11.918Z,3.33
2022-07-30T00:20:40.399Z,3.50
2022-07-30T00:23:10.169Z,3.33
2022-07-30T00:25:36.767Z,3.10
2022-07-30T00:28:03.350Z,3.05
2022-07-30T00:30:29.934Z,2.78
2022-07-30T00:32:56.562Z,4.05
2022-07-30T00:35:23.455Z,3.53
2022-07-30T00:37:50.050Z,3.03
2022-07-30T00:40:16.609Z,2.80
2022-07-30T00:42:45.298Z,3.50
2022-07-30T00:45:12.849Z,4.22
2022-07-30T00:47:40.121Z,3.22
2022-07-30T00:50:08.893Z,3.30
2022-07-30T00:52:38.383Z,3.90
2022-07-30T00:55:07.809Z,3.28
2022-07-30T00:57:34.556Z,3.35
2022-07-30T01:00:01.576Z,3.53
2022-07-30T01:02:28.214Z,2.60
2022-07-30T01:04:54.902Z,3.22
2022-07-30T01:07:21.426Z,3.20
2022-07-30T01:09:50.605Z,2.80
2022-07-30T01:12:20.317Z,3.38
2022-07-30T01:14:46.863Z,2.70
2022-07-30T01:17:13.915Z,3.05
2022-07-30T01:19:51.003Z,3.10
2022-07-30T01:22:30.703Z,3.38
2022-07-30T01:25:29.476Z,2.70
2022-07-30T01:28:05.465Z,2.63
2022-07-30T01:30:34.829Z,2.78
2022-07-30T01:33:02.067Z,3.13
2022-07-30T01:35:30.901Z,3.28
2022-07-30T01:37:57.832Z,2.85
2022-07-30T01:40:25.462Z,3.35
2022-07-30T01:42:57.178Z,3.15
2022-07-30T01:45:25.018Z,2.50
2022-07-30T01:47:53.724Z,2.67
2022-07-30T01:50:20.745Z,2.50
2022-07-30T01:52:50.899Z,3.75
2022-07-30T01:55:25.290Z,2.90
2022-07-30T01:57:52.223Z,3.60
2022-07-30T02:00:18.883Z,2.80
2022-07-30T02:02:46.164Z,2.90
2022-07-30T02:05:12.990Z,2.60
2022-07-30T02:07:45.984Z,2.67
2022-07-30T02:10:30.723Z,2.90
2022-07-30T02:12:58.026Z,2.72
2022-07-30T02:15:46.403Z,2.80
2022-07-30T02:18:30.284Z,2.95
2022-07-30T02:21:02.643Z,2.72
2022-07-30T02:23:41.249Z,3.15
2022-07-30T02:26:09.521Z,2.60
2022-07-30T02:28:38.658Z,2.80
2022-07-30T02:31:17.621Z,2.70
2022-07-30T02:33:48.626Z,2.63
2022-07-30T02:36:16.106Z,2.88
2022-07-30T02:38:43.762Z,2.63
2022-07-30T02:41:12.302Z,2.58
2022-07-30T02:43:40.882Z,2.80
2022-07-30T02:46:07.899Z,2.88
2022-07-30T02:48:36.679Z,3.00
2022-07-30T02:51:04.348Z,2.55
2022-07-30T02:53:31.202Z,2.80
2022-07-30T02:55:57.743Z,2.55
2022-07-30T02:58:25.871Z,2.58
2022-07-30T03:00:54.457Z,3.05
2022-07-30T03:03:21.879Z,2.53
2022-07-30T03:05:51.395Z,3.33
2022-07-30T03:08:19.865Z,2.67
2022-07-30T03:10:47.476Z,2.90
2022-07-30T03:13:14.621Z,2.85
2022-07-30T03:15:49.003Z,3.28
2022-07-30T03:18:17.388Z,2.78
2022-07-30T03:20:46.682Z,2.70
2022-07-30T03:23:17.102Z,3.17
2022-07-30T03:25:45.985Z,2.67
2022-07-30T03:28:14.056Z,2.90
2022-07-30T03:30:41.508Z,3.08
2022-07-30T03:33:08.038Z,3.00
2022-07-30T03:35:34.705Z,4.00
2022-07-30T03:38:01.789Z,2.90
2022-07-30T03:40:29.212Z,3.08
2022-07-30T03:42:56.134Z,2.75
2022-07-30T03:45:22.983Z,3.30
2022-07-30T03:47:49.968Z,2.58
2022-07-30T03:50:16.644Z,3.10
2022-07-30T03:52:43.518Z,2.75
2022-07-30T03:55:11.503Z,2.97
2022-07-30T03:57:38.361Z,3.13
2022-07-30T04:00:08.598Z,2.72
2022-07-30T04:02:45.321Z,3.03
2022-07-30T04:05:13.348Z,2.70
2022-07-30T04:07:41.320Z,2.47
2022-07-30T04:10:13.297Z,3.25
2022-07-30T04:12:39.803Z,2.80
2022-07-30T04:16:40.439Z,2.60
2022-07-30T04:17:56.446Z,2.65
2022-07-30T04:20:30.827Z,2.20
2022-07-30T04:22:58.333Z,2.50
2022-07-30T04:25:25.600Z,2.50
2022-07-30T04:28:03.340Z,2.40
2022-07-30T04:30:30.620Z,2.40
2022-07-30T04:32:57.167Z,2.60
2022-07-30T04:35:50.577Z,2.58
2022-07-30T04:38:15.109Z,2.22
2022-07-30T04:40:41.689Z,2.53
2022-07-30T04:43:08.303Z,2.70
2022-07-30T04:45:35.331Z,4.80
2022-07-30T04:48:01.829Z,10.48
2022-07-30T04:50:29.228Z,12.55
2022-07-30T04:52:56.060Z,20.17
2022-07-30T04:55:23.102Z,23.75
2022-07-30T04:57:51.666Z,20.75
2022-07-30T05:00:18.495Z,21.48
2022-07-30T05:02:46.708Z,21.17
2022-07-30T05:05:15.131Z,16.35
2022-07-30T05:07:42.136Z,14.35
2022-07-30T05:10:11.820Z,13.95
2022-07-30T05:12:39.138Z,12.32
2022-07-30T05:15:07.318Z,10.00
2022-07-30T05:17:34.115Z,7.55
2022-07-30T05:20:00.636Z,8.18
2022-07-30T05:22:30.094Z,7.63
2022-07-30T05:24:59.921Z,6.97
2022-07-30T05:27:26.451Z,5.50
2022-07-30T05:29:52.963Z,6.13
2022-07-30T05:32:22.713Z,5.68
2022-07-30T05:34:52.205Z,5.43
2022-07-30T05:37:18.865Z,4.13
2022-07-30T05:40:02.926Z,3.95
2022-07-30T05:42:30.195Z,4.28
2022-07-30T05:44:56.985Z,3.20
2022-07-30T05:47:23.542Z,3.25
2022-07-30T05:49:50.051Z,3.40
2022-07-30T05:52:16.609Z,2.63
2022-07-30T05:54:43.132Z,2.67
2022-07-30T05:57:09.917Z,3.35
2022-07-30T05:59:36.433Z,2.55
2022-07-30T06:02:03.869Z,2.92
2022-07-30T06:04:30.714Z,2.63
2022-07-30T06:06:57.527Z,2.60
2022-07-30T06:09:36.353Z,2.92
2022-07-30T06:12:04.196Z,3.53
2022-07-30T06:14:32.131Z,4.88
2022-07-30T06:16:59.086Z,3.72
2022-07-30T06:19:26.282Z,3.92
2022-07-30T06:22:06.072Z,4.53
2022-07-30T06:24:33.667Z,2.90
2022-07-30T06:27:00.717Z,2.97
2022-07-30T06:29:27.488Z,2.75
2022-07-30T06:31:53.978Z,3.47
2022-07-30T06:34:20.599Z,2.40
2022-07-30T06:36:47.212Z,2.95
2022-07-30T06:39:14.044Z,2.30
2022-07-30T06:41:41.648Z,2.53
2022-07-30T06:44:08.189Z,2.20
2022-07-30T06:46:34.847Z,2.30
2022-07-30T06:49:01.994Z,2.17
2022-07-30T06:51:28.595Z,2.67
2022-07-30T06:53:55.182Z,2.40
2022-07-30T06:56:21.981Z,2.05
2022-07-30T06:58:48.553Z,2.03
2022-07-30T07:01:15.332Z,1.85
2022-07-30T07:03:41.877Z,2.13
2022-07-30T07:06:08.705Z,1.95
2022-07-30T07:08:38.376Z,2.00
2022-07-30T07:11:05.018Z,3.72
2022-07-30T07:13:31.525Z,1.80
2022-07-30T07:15:58.268Z,2.20
2022-07-30T07:18:24.803Z,2.90
2022-07-30T07:20:51.358Z,2.00
2022-07-30T07:23:19.736Z,2.22
2022-07-30T07:25:47.302Z,1.73
2022-07-30T07:28:13.959Z,2.30
2022-07-30T07:30:44.388Z,1.90
2022-07-30T07:33:12.089Z,2.20
2022-07-30T07:35:48.490Z,2.10
2022-07-30T07:38:19.891Z,2.30
2022-07-30T07:40:47.254Z,2.20
2022-07-30T07:43:14.696Z,2.13
2022-07-30T07:45:42.416Z,2.05
2022-07-30T07:48:09.277Z,2.20
2022-07-30T07:50:35.895Z,2.00
2022-07-30T07:53:02.426Z,2.72
2022-07-30T07:55:29.336Z,2.88
2022-07-30T07:57:59.375Z,2.15
2022-07-30T08:00:26.501Z,2.53
2022-07-30T08:02:53.324Z,1.80
2022-07-30T08:06:02.681Z,2.10
2022-07-30T08:08:13.826Z,1.92
2022-07-30T08:10:40.383Z,1.77
2022-07-30T08:13:06.975Z,1.98
2022-07-30T08:15:53.505Z,2.15
2022-07-30T08:18:20.018Z,3.00
2022-07-30T08:20:46.613Z,2.17
2022-07-30T08:23:13.167Z,2.00
2022-07-30T08:25:39.703Z,2.10
2022-07-30T08:28:06.187Z,1.90
2022-07-30T08:30:33.129Z,2.60
2022-07-30T08:32:59.695Z,2.35
2022-07-30T08:35:26.218Z,1.90
2022-07-30T08:37:52.809Z,3.95
2022-07-30T08:40:20.412Z,2.20
2022-07-30T08:42:47.445Z,1.80
2022-07-30T08:45:14.707Z,2.65
2022-07-30T08:47:41.508Z,2.10
2022-07-30T08:50:08.753Z,2.05
2022-07-30T08:52:36.325Z,2.13
2022-07-30T08:55:04.955Z,1.80
2022-07-30T08:57:32.712Z,2.28
2022-07-30T09:00:01.599Z,2.10
2022-07-30T09:02:31.264Z,2.30
2022-07-30T09:04:58.012Z,2.17
2022-07-30T09:07:24.784Z,2.28
2022-07-30T09:09:51.320Z,2.42
2022-07-30T09:12:36.590Z,2.10
2022-07-30T09:15:08.747Z,2.85
2022-07-30T09:17:53.950Z,2.72
2022-07-30T09:20:22.582Z,3.58
2022-07-30T09:22:53.324Z,1.70
2022-07-30T09:25:44.823Z,3.47
2022-07-30T09:28:15.678Z,1.77
2022-07-30T09:30:54.286Z,1.98
2022-07-30T09:33:43.247Z,1.50
2022-07-30T09:36:12.595Z,2.75
2022-07-30T09:38:50.484Z,1.90
2022-07-30T09:41:41.196Z,4.53
2022-07-30T09:44:08.015Z,6.45
2022-07-30T09:46:47.744Z,4.15
2022-07-30T09:49:26.428Z,6.07
2022-07-30T09:51:57.040Z,3.28
2022-07-30T09:54:43.267Z,2.20
2022-07-30T09:57:25.656Z,2.50
2022-07-30T09:59:54.065Z,3.42
2022-07-30T10:02:26.436Z,2.47
2022-07-30T10:04:53.282Z,1.77
2022-07-30T10:07:25.642Z,3.05
2022-07-30T10:09:54.213Z,2.67
2022-07-30T10:12:24.171Z,4.85
2022-07-30T10:14:53.566Z,6.50
2022-07-30T10:17:20.941Z,4.38
2022-07-30T10:19:48.999Z,3.40
2022-07-30T10:22:17.188Z,5.38
2022-07-30T10:24:44.734Z,2.13
2022-07-30T10:27:12.009Z,2.03
2022-07-30T10:29:42.854Z,2.95
2022-07-30T10:32:09.817Z,4.05
2022-07-30T10:34:42.409Z,2.78
2022-07-30T10:37:09.799Z,2.78
2022-07-30T10:40:17.316Z,3.08
2022-07-30T10:43:11.992Z,2.33
2022-07-30T10:46:19.896Z,2.92
2022-07-30T10:48:49.801Z,4.38
2022-07-30T10:51:25.326Z,2.72
2022-07-30T10:54:00.901Z,2.47
2022-07-30T10:56:27.427Z,2.20
2022-07-30T11:01:59.711Z,6.70
2022-07-30T11:04:30.327Z,5.82
2022-07-30T11:07:22.058Z,2.83
2022-07-30T11:10:04.286Z,2.97
2022-07-30T11:12:41.396Z,5.38
2022-07-30T11:15:19.023Z,3.47
2022-07-30T11:18:12.254Z,4.20
2022-07-30T11:20:39.131Z,2.97
2022-07-30T11:23:39.231Z,2.42
2022-07-30T11:26:06.077Z,2.30
2022-07-30T11:28:41.213Z,2.90
2022-07-30T11:31:56.639Z,3.63
2022-07-30T11:34:26.404Z,3.22
2022-07-30T11:37:18.620Z,3.17
2022-07-30T11:39:55.221Z,1.83
2022-07-30T11:42:33.530Z,1.77
2022-07-30T11:45:18.495Z,2.13
2022-07-30T11:47:46.483Z,1.70
2022-07-30T11:50:28.624Z,1.50
2022-07-30T11:53:18.257Z,1.60
2022-07-30T11:58:30.326Z,1.70
2022-07-30T12:01:01.809Z,1.65
2022-07-30T12:03:31.778Z,1.77
2022-07-30T12:06:09.933Z,2.45
2022-07-30T12:08:43.815Z,3.15
2022-07-30T12:11:10.847Z,2.55
2022-07-30T12:13:45.273Z,1.60
2022-07-30T12:16:16.808Z,2.60
2022-07-30T12:18:44.437Z,2.65
2022-07-30T12:21:17.638Z,1.67
2022-07-30T12:24:07.499Z,1.42
2022-07-30T12:26:35.385Z,1.50
2022-07-30T12:29:05.687Z,1.35
2022-07-30T12:31:39.681Z,1.10
2022-07-30T12:34:19.972Z,2.05
2022-07-30T12:36:46.538Z,1.73
2022-07-30T12:39:19.475Z,1.20
2022-07-30T12:41:52.614Z,1.00
2022-07-30T12:44:35.191Z,2.78
2022-07-30T12:47:03.269Z,1.30
2022-07-30T12:49:37.827Z,1.48
2022-07-30T12:52:27.715Z,1.20
2022-07-30T12:55:04.531Z,0.95
2022-07-30T12:58:07.952Z,1.10
2022-07-30T13:00:44.669Z,1.25
2022-07-30T13:03:28.186Z,2.75
2022-07-30T13:05:56.639Z,1.20
2022-07-30T13:08:55.507Z,1.10
2022-07-30T13:11:24.199Z,1.27
2022-07-30T13:13:51.354Z,1.10
2022-07-30T13:16:19.520Z,1.05
2022-07-30T13:18:46.647Z,2.25
2022-07-30T13:21:13.464Z,1.50
2022-07-30T13:23:40.927Z,1.10
2022-07-30T13:26:09.099Z,1.10
2022-07-30T13:28:36.850Z,1.60
2022-07-30T13:31:03.715Z,1.20
2022-07-30T13:33:30.393Z,1.10
2022-07-30T13:35:57.125Z,1.35
2022-07-30T13:38:23.646Z,1.10
2022-07-30T13:40:53.230Z,1.13
2022-07-30T13:43:20.149Z,1.20
2022-07-30T13:45:47.357Z,1.10
2022-07-30T13:48:14.306Z,1.40
2022-07-30T13:50:41.532Z,1.00
2022-07-30T13:53:08.962Z,1.40
2022-07-30T13:55:36.628Z,1.90
2022-07-30T13:58:03.545Z,1.98
2022-07-30T14:00:32.680Z,2.80
2022-07-30T14:03:04.311Z,1.10
2022-07-30T14:05:31.418Z,1.20
2022-07-30T14:07:57.984Z,1.00
2022-07-30T14:10:25.009Z,1.10
2022-07-30T14:12:55.041Z,1.00
2022-07-30T14:15:22.781Z,0.93
2022-07-30T14:17:56.505Z,1.30
2022-07-30T14:20:24.213Z,1.20
2022-07-30T14:22:51.003Z,1.10
2022-07-30T14:25:21.099Z,1.88
2022-07-30T14:27:48.226Z,1.20
2022-07-30T14:30:14.908Z,1.00
2022-07-30T14:32:41.588Z,1.10
2022-07-30T14:35:09.892Z,1.25
2022-07-30T14:37:38.099Z,0.98
2022-07-30T14:40:11.378Z,1.05
2022-07-30T14:42:39.914Z,1.10
2022-07-30T14:45:08.068Z,1.20
2022-07-30T14:47:34.751Z,2.72
2022-07-30T14:50:01.382Z,1.05
2022-07-30T14:52:28.151Z,1.13
2022-07-30T14:54:54.628Z,1.30
2022-07-30T14:57:21.218Z,1.27
2022-07-30T14:59:47.739Z,1.10
2022-07-30T15:02:14.409Z,1.10
2022-07-30T15:04:41.188Z,1.00
2022-07-30T15:07:07.716Z,1.00
2022-07-30T15:09:34.272Z,1.30
2022-07-30T15:12:08.666Z,1.35
2022-07-30T15:14:37.440Z,1.60
2022-07-30T15:17:04.671Z,1.05
2022-07-30T15:19:32.273Z,1.20
2022-07-30T15:22:02.149Z,1.63
2022-07-30T15:24:30.454Z,1.10
2022-07-30T15:26:57.026Z,1.38
2022-07-30T15:29:24.314Z,1.10
2022-07-30T15:31:51.622Z,1.10
2022-07-30T15:34:18.232Z,1.20
2022-07-30T15:36:45.076Z,1.50
2022-07-30T15:39:11.640Z,1.30
2022-07-30T15:41:38.376Z,1.30
2022-07-30T15:44:05.049Z,0.93
2022-07-30T15:46:31.603Z,1.45
2022-07-30T15:48:58.131Z,1.40
2022-07-30T15:51:24.725Z,1.98
2022-07-30T15:53:51.217Z,1.00
2022-07-30T15:56:18.541Z,0.98
2022-07-30T15:58:45.063Z,1.33
2022-07-30T16:01:11.824Z,1.20
2022-07-30T16:03:38.719Z,1.40
2022-07-30T16:06:05.340Z,1.27
2022-07-30T16:08:31.869Z,1.35
2022-07-30T16:10:58.396Z,1.33
2022-07-30T16:13:24.973Z,1.02
2022-07-30T16:15:51.567Z,1.73
2022-07-30T16:18:18.068Z,1.00
2022-07-30T16:20:44.569Z,1.00
2022-07-30T16:23:14.088Z,1.30
2022-07-30T16:25:43.520Z,1.38
2022-07-30T16:28:10.020Z,1.40
2022-07-30T16:30:36.575Z,1.27
2022-07-30T16:35:48.841Z,1.10
2022-07-30T16:38:17.384Z,1.40
2022-07-30T16:40:44.072Z,1.35
2022-07-30T16:43:10.614Z,1.40
2022-07-30T16:45:37.165Z,1.60
2022-07-30T16:48:04.182Z,1.45
2022-07-30T16:50:30.866Z,1.40
2022-07-30T16:52:57.424Z,2.05
2022-07-30T16:55:23.988Z,2.83
2022-07-30T16:57:50.492Z,3.33
2022-07-30T17:00:18.205Z,1.90
2022-07-30T17:02:45.033Z,1.60
2022-07-30T17:05:13.823Z,1.42
2022-07-30T17:07:40.775Z,1.75
2022-07-30T17:10:07.712Z,1.40
2022-07-30T17:12:38.856Z,1.30
2022-07-30T17:15:07.684Z,1.40
2022-07-30T17:17:34.257Z,1.50
2022-07-30T17:20:01.937Z,1.20
2022-07-30T17:22:29.004Z,1.75
2022-07-30T17:24:55.531Z,1.20
2022-07-30T17:27:22.055Z,1.40
2022-07-30T17:29:50.339Z,1.40
2022-07-30T17:32:17.958Z,2.05
2022-07-30T17:34:44.685Z,1.27
2022-07-30T17:37:11.280Z,1.60
2022-07-30T17:40:19.107Z,2.35
2022-07-30T17:42:26.181Z,1.40
2022-07-30T17:44:52.678Z,1.60
2022-07-30T17:47:19.254Z,1.75
2022-07-30T17:49:46.437Z,1.77
2022-07-30T17:52:13.181Z,1.60
2022-07-30T17:54:40.131Z,1.60
2022-07-30T17:57:07.167Z,2.70
2022-07-30T17:59:33.706Z,1.98
2022-07-30T18:02:00.816Z,1.80
2022-07-30T18:04:27.633Z,6.10
2022-07-30T18:06:54.280Z,2.08
2022-07-30T18:09:20.800Z,2.38
2022-07-30T18:11:47.493Z,2.53
2022-07-30T18:14:14.022Z,2.00
2022-07-30T18:16:40.540Z,1.80
2022-07-30T18:19:07.068Z,2.28
2022-07-30T18:21:35.091Z,2.05
2022-07-30T18:24:05.521Z,2.55
2022-07-30T18:26:36.739Z,2.03
2022-07-30T18:29:03.905Z,2.22
2022-07-30T18:31:30.705Z,2.13
2022-07-30T18:33:57.306Z,1.67
2022-07-30T18:36:23.924Z,2.00
2022-07-30T18:38:51.265Z,2.42
2022-07-30T18:41:17.972Z,2.10
2022-07-30T18:43:47.905Z,1.85
2022-07-30T18:46:15.633Z,1.80
2022-07-30T18:48:42.164Z,2.53
2022-07-30T18:51:13.702Z,2.28
2022-07-30T18:53:41.594Z,2.05
2022-07-30T18:56:08.183Z,2.00
2022-07-30T18:58:34.763Z,2.72
2022-07-30T19:01:01.432Z,2.13
2022-07-30T19:03:27.978Z,1.92
2022-07-30T19:05:54.474Z,2.10
2022-07-30T19:08:21.417Z,2.92
2022-07-30T19:10:48.596Z,1.83
2022-07-30T19:13:15.108Z,2.20
2022-07-30T19:15:41.729Z,2.08
2022-07-30T19:18:10.235Z,2.47
2022-07-30T19:20:36.997Z,2.00
2022-07-30T19:23:05.063Z,1.92
2022-07-30T19:25:33.153Z,2.10
2022-07-30T19:28:01.414Z,1.90
2022-07-30T19:30:31.402Z,1.88
2022-07-30T19:33:14.203Z,2.58
2022-07-30T19:35:42.445Z,2.88
2022-07-30T19:38:09.768Z,2.38
2022-07-30T19:40:39.454Z,2.20
2022-07-30T19:43:06.598Z,2.20
2022-07-30T19:45:47.368Z,2.17
2022-07-30T19:48:15.122Z,2.08
2022-07-30T19:50:55.914Z,2.22
2022-07-30T19:53:22.420Z,2.30
2022-07-30T19:55:48.945Z,2.00
2022-07-30T19:58:18.616Z,2.75
2022-07-30T20:00:49.420Z,2.72
2022-07-30T20:06:07.642Z,2.33
2022-07-30T20:08:35.535Z,2.10
2022-07-30T20:11:03.386Z,2.78
2022-07-30T20:13:45.214Z,2.28
2022-07-30T20:16:16.258Z,2.00
2022-07-30T20:18:45.051Z,2.83
2022-07-30T20:21:15.454Z,2.53
2022-07-30T20:23:43.316Z,2.08
2022-07-30T20:26:13.727Z,2.08
2022-07-30T20:28:41.981Z,1.73
2022-07-30T20:31:08.642Z,2.08
2022-07-30T20:33:37.763Z,1.83
2022-07-30T20:36:04.873Z,2.47
2022-07-30T20:38:33.750Z,1.90
2022-07-30T20:41:02.302Z,2.00
2022-07-30T20:43:29.149Z,2.30
2022-07-30T20:45:55.916Z,1.88
2022-07-30T20:48:25.700Z,1.88
2022-07-30T20:50:52.564Z,1.70
2022-07-30T20:53:19.836Z,1.80
2022-07-30T20:55:47.402Z,2.20
2022-07-30T20:58:16.579Z,1.88
2022-07-30T21:00:49.837Z,1.92
2022-07-30T21:03:21.545Z,2.08
2022-07-30T21:05:48.664Z,2.10
2022-07-30T21:08:17.872Z,1.90
2022-07-30T21:10:44.887Z,2.00
2022-07-30T21:13:12.746Z,2.03
2022-07-30T21:15:45.291Z,2.67
2022-07-30T21:18:26.478Z,3.05
2022-07-30T21:20:53.107Z,3.30
2022-07-30T21:23:22.385Z,2.40
2022-07-30T21:26:00.575Z,2.10
2022-07-30T21:28:29.208Z,1.80
2022-07-30T21:30:57.105Z,1.77
2022-07-30T21:33:24.255Z,2.00
2022-07-30T21:35:57.494Z,2.00
2022-07-30T21:38:26.512Z,2.10
2022-07-30T21:40:53.711Z,1.95
2022-07-30T21:43:40.566Z,1.77
2022-07-30T21:46:08.198Z,2.10
2022-07-30T21:48:37.035Z,1.70
2022-07-30T21:51:04.136Z,2.63
2022-07-30T21:53:46.023Z,2.35
2022-07-30T21:56:13.552Z,2.05
2022-07-30T21:58:41.094Z,2.10
2022-07-30T22:01:17.510Z,2.15
2022-07-30T22:04:03.553Z,1.70
2022-07-30T22:06:36.559Z,2.13
2022-07-30T22:09:18.775Z,1.70
2022-07-30T22:11:52.592Z,1.70
2022-07-30T22:14:19.105Z,1.80
2022-07-30T22:16:46.568Z,2.00
2022-07-30T22:19:14.837Z,2.08
2022-07-30T22:21:42.805Z,1.85
2022-07-30T22:24:29.186Z,1.85
2022-07-30T22:26:56.833Z,2.00
2022-07-30T22:29:24.172Z,1.80
2022-07-30T22:31:50.887Z,1.80
2022-07-30T22:34:18.590Z,1.77
2022-07-30T22:36:46.074Z,1.92
2022-07-30T22:39:12.676Z,1.90
2022-07-30T22:41:39.307Z,1.85
2022-07-30T22:44:06.736Z,1.75
2022-07-30T22:46:38.772Z,1.80
2022-07-30T22:49:23.277Z,1.70
2022-07-30T22:52:17.853Z,2.50
2022-07-30T22:54:39.143Z,1.50
2022-07-30T22:57:05.713Z,1.52
2022-07-30T22:59:58.289Z,2.40
2022-07-30T23:02:18.756Z,1.70
2022-07-30T23:04:47.164Z,1.35
2022-07-30T23:07:18.960Z,1.52
2022-07-30T23:09:51.569Z,1.60
2022-07-30T23:12:15.733Z,3.83
2022-07-30T23:12:20.144Z,1.35
2022-07-30T23:14:47.180Z,1.75
2022-07-30T23:17:13.658Z,1.92
2022-07-30T23:19:40.167Z,1.88
2022-07-30T23:22:07.079Z,1.77
2022-07-30T23:24:33.692Z,1.50
2022-07-30T23:27:00.480Z,1.45
2022-07-30T23:32:09.187Z,1.92
2022-07-30T23:34:36.214Z,1.80
2022-07-30T23:37:05.212Z,1.48
2022-07-30T23:39:32.515Z,1.52
2022-07-30T23:41:59.116Z,1.48
2022-07-30T23:44:27.820Z,1.70
2022-07-30T23:46:54.394Z,1.50
2022-07-30T23:49:24.022Z,1.60
2022-07-30T23:51:53.475Z,1.55
2022-07-30T23:54:21.582Z,3.28
2022-07-30T23:56:53.202Z,1.40
2022-07-30T23:59:19.746Z,1.30
